sensor_id;sensor_type;location;lat;lon;timestamp;P1;durP1;ratioP1;P2;durP2;ratioP2
28078;SDS011;15388;42.238;24.684;2023-07-29T00:00:14;2.92;;;2.60;;
28078;SDS011;15388;42.238;24.684;2023-07-29T00:02:39;4.75;;;3.17;;
28078;SDS011;15388;42.238;24.684;2023-07-29T00:05:04;4.93;;;3.15;;
28078;SDS011;15388;42.238;24.684;2023-07-29T00:07:30;8.20;;;3.65;;
28078;SDS011;15388;42.238;24.684;2023-07-29T00:09:55;77.85;;;8.68;;
28078;SDS011;15388;42.238;24.684;2023-07-29T00:12:20;15.98;;;3.70;;
28078;SDS011;15388;42.238;24.684;2023-07-29T00:14:46;7.60;;;3.15;;
28078;SDS011;15388;42.238;24.684;2023-07-29T00:17:11;4.85;;;2.75;;
28078;SDS011;15388;42.238;24.684;2023-07-29T00:19:36;5.40;;;2.75;;
28078;SDS011;15388;42.238;24.684;2023-07-29T00:22:01;3.80;;;3.33;;
28078;SDS011;15388;42.238;24.684;2023-07-29T00:24:27;3.72;;;2.97;;
28078;SDS011;15388;42.238;24.684;2023-07-29T00:26:53;3.58;;;2.92;;
28078;SDS011;15388;42.238;24.684;2023-07-29T00:29:18;6.88;;;3.85;;
28078;SDS011;15388;42.238;24.684;2023-07-29T00:31:43;4.90;;;2.88;;
28078;SDS011;15388;42.238;24.684;2023-07-29T00:34:09;4.53;;;2.50;;
28078;SDS011;15388;42.238;24.684;2023-07-29T00:36:34;4.68;;;3.08;;
28078;SDS011;15388;42.238;24.684;2023-07-29T00:38:59;5.28;;;3.28;;
28078;SDS011;15388;42.238;24.684;2023-07-29T00:41:25;4.95;;;2.90;;
28078;SDS011;15388;42.238;24.684;2023-07-29T00:43:50;5.65;;;3.60;;
28078;SDS011;15388;42.238;24.684;2023-07-29T00:46:16;4.50;;;2.95;;
28078;SDS011;15388;42.238;24.684;2023-07-29T00:48:41;4.15;;;3.17;;
28078;SDS011;15388;42.238;24.684;2023-07-29T00:51:07;4.90;;;3.08;;
28078;SDS011;15388;42.238;24.684;2023-07-29T00:53:32;5.13;;;4.07;;
28078;SDS011;15388;42.238;24.684;2023-07-29T00:55:58;5.63;;;3.72;;
28078;SDS011;15388;42.238;24.684;2023-07-29T00:58:23;3.38;;;2.88;;
28078;SDS011;15388;42.238;24.684;2023-07-29T01:00:48;3.58;;;2.78;;
28078;SDS011;15388;42.238;24.684;2023-07-29T01:03:14;7.25;;;3.95;;
28078;SDS011;15388;42.238;24.684;2023-07-29T01:05:48;3.67;;;3.33;;
28078;SDS011;15388;42.238;24.684;2023-07-29T01:08:23;5.50;;;3.25;;
28078;SDS011;15388;42.238;24.684;2023-07-29T01:13:23;12.00;;;3.45;;
28078;SDS011;15388;42.238;24.684;2023-07-29T01:15:55;8.07;;;3.08;;
28078;SDS011;15388;42.238;24.684;2023-07-29T01:18:22;10.50;;;3.75;;
28078;SDS011;15388;42.238;24.684;2023-07-29T01:20:48;4.68;;;3.10;;
28078;SDS011;15388;42.238;24.684;2023-07-29T01:23:22;6.97;;;3.85;;
28078;SDS011;15388;42.238;24.684;2023-07-29T01:25:48;7.05;;;3.30;;
28078;SDS011;15388;42.238;24.684;2023-07-29T01:28:13;4.43;;;2.97;;
28078;SDS011;15388;42.238;24.684;2023-07-29T01:30:39;5.88;;;3.55;;
28078;SDS011;15388;42.238;24.684;2023-07-29T01:33:09;5.93;;;3.50;;
28078;SDS011;15388;42.238;24.684;2023-07-29T01:35:39;5.47;;;3.65;;
28078;SDS011;15388;42.238;24.684;2023-07-29T01:38:09;6.00;;;3.60;;
28078;SDS011;15388;42.238;24.684;2023-07-29T01:40:36;4.63;;;3.95;;
28078;SDS011;15388;42.238;24.684;2023-07-29T01:43:02;5.40;;;3.72;;
28078;SDS011;15388;42.238;24.684;2023-07-29T01:45:28;7.45;;;3.90;;
28078;SDS011;15388;42.238;24.684;2023-07-29T01:47:56;5.32;;;3.78;;
28078;SDS011;15388;42.238;24.684;2023-07-29T01:50:21;8.13;;;4.20;;
28078;SDS011;15388;42.238;24.684;2023-07-29T01:52:47;7.07;;;3.45;;
28078;SDS011;15388;42.238;24.684;2023-07-29T01:55:12;3.92;;;3.53;;
28078;SDS011;15388;42.238;24.684;2023-07-29T01:57:37;4.70;;;3.17;;
28078;SDS011;15388;42.238;24.684;2023-07-29T02:00:03;5.90;;;3.67;;
28078;SDS011;15388;42.238;24.684;2023-07-29T02:02:29;4.13;;;2.97;;
28078;SDS011;15388;42.238;24.684;2023-07-29T02:04:54;3.90;;;3.50;;
28078;SDS011;15388;42.238;24.684;2023-07-29T02:07:21;3.97;;;3.45;;
28078;SDS011;15388;42.238;24.684;2023-07-29T02:09:46;4.47;;;3.63;;
28078;SDS011;15388;42.238;24.684;2023-07-29T02:12:11;5.30;;;3.65;;
28078;SDS011;15388;42.238;24.684;2023-07-29T02:14:36;4.90;;;4.18;;
28078;SDS011;15388;42.238;24.684;2023-07-29T02:17:02;7.85;;;3.63;;
28078;SDS011;15388;42.238;24.684;2023-07-29T02:19:27;3.42;;;3.13;;
28078;SDS011;15388;42.238;24.684;2023-07-29T02:21:52;4.55;;;3.22;;
28078;SDS011;15388;42.238;24.684;2023-07-29T02:24:18;4.28;;;3.25;;
28078;SDS011;15388;42.238;24.684;2023-07-29T02:26:43;3.97;;;3.33;;
28078;SDS011;15388;42.238;24.684;2023-07-29T02:29:08;10.50;;;3.30;;
28078;SDS011;15388;42.238;24.684;2023-07-29T02:31:34;4.47;;;2.80;;
28078;SDS011;15388;42.238;24.684;2023-07-29T02:34:00;4.65;;;3.40;;
28078;SDS011;15388;42.238;24.684;2023-07-29T02:36:25;4.38;;;2.88;;
28078;SDS011;15388;42.238;24.684;2023-07-29T02:38:50;5.32;;;2.78;;
28078;SDS011;15388;42.238;24.684;2023-07-29T02:41:16;8.10;;;3.30;;
28078;SDS011;15388;42.238;24.684;2023-07-29T02:43:42;8.57;;;3.28;;
28078;SDS011;15388;42.238;24.684;2023-07-29T02:46:07;9.15;;;3.33;;
28078;SDS011;15388;42.238;24.684;2023-07-29T02:48:32;6.63;;;3.90;;
28078;SDS011;15388;42.238;24.684;2023-07-29T02:50:58;3.97;;;3.45;;
28078;SDS011;15388;42.238;24.684;2023-07-29T02:53:23;11.32;;;3.63;;
28078;SDS011;15388;42.238;24.684;2023-07-29T02:55:48;7.30;;;3.47;;
28078;SDS011;15388;42.238;24.684;2023-07-29T02:58:14;12.95;;;3.92;;
28078;SDS011;15388;42.238;24.684;2023-07-29T03:00:39;7.93;;;3.30;;
28078;SDS011;15388;42.238;24.684;2023-07-29T03:03:07;6.95;;;3.80;;
28078;SDS011;15388;42.238;24.684;2023-07-29T03:05:32;19.05;;;5.28;;
28078;SDS011;15388;42.238;24.684;2023-07-29T03:07:57;14.38;;;4.47;;
28078;SDS011;15388;42.238;24.684;2023-07-29T03:10:23;9.93;;;4.32;;
28078;SDS011;15388;42.238;24.684;2023-07-29T03:12:48;10.05;;;5.05;;
28078;SDS011;15388;42.238;24.684;2023-07-29T03:15:13;10.40;;;4.43;;
28078;SDS011;15388;42.238;24.684;2023-07-29T03:17:39;13.77;;;3.63;;
28078;SDS011;15388;42.238;24.684;2023-07-29T03:20:04;20.08;;;4.72;;
28078;SDS011;15388;42.238;24.684;2023-07-29T03:22:30;8.95;;;4.10;;
28078;SDS011;15388;42.238;24.684;2023-07-29T03:24:55;8.25;;;3.50;;
28078;SDS011;15388;42.238;24.684;2023-07-29T03:27:20;7.05;;;3.88;;
28078;SDS011;15388;42.238;24.684;2023-07-29T03:29:46;9.93;;;4.68;;
28078;SDS011;15388;42.238;24.684;2023-07-29T03:32:11;6.32;;;3.83;;
28078;SDS011;15388;42.238;24.684;2023-07-29T03:34:36;10.07;;;4.63;;
28078;SDS011;15388;42.238;24.684;2023-07-29T03:37:02;7.05;;;4.72;;
28078;SDS011;15388;42.238;24.684;2023-07-29T03:39:27;7.55;;;3.88;;
28078;SDS011;15388;42.238;24.684;2023-07-29T03:41:52;7.43;;;4.28;;
28078;SDS011;15388;42.238;24.684;2023-07-29T03:44:18;11.25;;;4.78;;
28078;SDS011;15388;42.238;24.684;2023-07-29T03:46:44;13.07;;;4.93;;
28078;SDS011;15388;42.238;24.684;2023-07-29T03:49:09;19.08;;;4.65;;
28078;SDS011;15388;42.238;24.684;2023-07-29T03:51:34;9.15;;;4.55;;
28078;SDS011;15388;42.238;24.684;2023-07-29T03:53:59;9.75;;;4.35;;
28078;SDS011;15388;42.238;24.684;2023-07-29T03:56:25;7.53;;;4.13;;
28078;SDS011;15388;42.238;24.684;2023-07-29T03:58:50;9.55;;;3.83;;
28078;SDS011;15388;42.238;24.684;2023-07-29T04:01:16;15.63;;;4.38;;
28078;SDS011;15388;42.238;24.684;2023-07-29T04:03:41;15.32;;;5.45;;
28078;SDS011;15388;42.238;24.684;2023-07-29T04:06:06;16.27;;;5.35;;
28078;SDS011;15388;42.238;24.684;2023-07-29T04:08:32;5.55;;;4.35;;
28078;SDS011;15388;42.238;24.684;2023-07-29T04:10:58;5.80;;;4.50;;
28078;SDS011;15388;42.238;24.684;2023-07-29T04:13:23;13.30;;;4.25;;
28078;SDS011;15388;42.238;24.684;2023-07-29T04:15:49;11.95;;;4.40;;
28078;SDS011;15388;42.238;24.684;2023-07-29T04:18:14;16.02;;;4.05;;
28078;SDS011;15388;42.238;24.684;2023-07-29T04:20:39;8.68;;;4.05;;
28078;SDS011;15388;42.238;24.684;2023-07-29T04:23:05;9.30;;;4.75;;
28078;SDS011;15388;42.238;24.684;2023-07-29T04:25:30;5.07;;;4.28;;
28078;SDS011;15388;42.238;24.684;2023-07-29T04:27:55;7.10;;;4.13;;
28078;SDS011;15388;42.238;24.684;2023-07-29T04:30:22;6.20;;;4.72;;
28078;SDS011;15388;42.238;24.684;2023-07-29T04:32:48;9.35;;;3.83;;
28078;SDS011;15388;42.238;24.684;2023-07-29T04:35:13;9.88;;;4.20;;
28078;SDS011;15388;42.238;24.684;2023-07-29T04:37:39;7.25;;;4.20;;
28078;SDS011;15388;42.238;24.684;2023-07-29T04:40:05;9.10;;;5.50;;
28078;SDS011;15388;42.238;24.684;2023-07-29T04:42:30;10.82;;;3.95;;
28078;SDS011;15388;42.238;24.684;2023-07-29T04:44:56;6.53;;;3.40;;
28078;SDS011;15388;42.238;24.684;2023-07-29T04:47:21;12.63;;;3.90;;
28078;SDS011;15388;42.238;24.684;2023-07-29T04:49:46;8.35;;;3.58;;
28078;SDS011;15388;42.238;24.684;2023-07-29T04:52:12;19.85;;;4.63;;
28078;SDS011;15388;42.238;24.684;2023-07-29T04:54:37;5.30;;;4.10;;
28078;SDS011;15388;42.238;24.684;2023-07-29T04:57:03;41.63;;;6.78;;
28078;SDS011;15388;42.238;24.684;2023-07-29T04:59:28;28.13;;;5.53;;
28078;SDS011;15388;42.238;24.684;2023-07-29T05:01:54;22.02;;;4.15;;
28078;SDS011;15388;42.238;24.684;2023-07-29T05:04:19;13.75;;;5.18;;
28078;SDS011;15388;42.238;24.684;2023-07-29T05:06:44;9.60;;;4.40;;
28078;SDS011;15388;42.238;24.684;2023-07-29T05:09:13;6.65;;;4.10;;
28078;SDS011;15388;42.238;24.684;2023-07-29T05:11:39;10.43;;;3.97;;
28078;SDS011;15388;42.238;24.684;2023-07-29T05:14:05;12.40;;;4.50;;
28078;SDS011;15388;42.238;24.684;2023-07-29T05:16:31;8.50;;;4.03;;
28078;SDS011;15388;42.238;24.684;2023-07-29T05:18:56;7.45;;;3.80;;
28078;SDS011;15388;42.238;24.684;2023-07-29T05:21:21;6.72;;;3.53;;
28078;SDS011;15388;42.238;24.684;2023-07-29T05:23:47;15.45;;;4.82;;
28078;SDS011;15388;42.238;24.684;2023-07-29T05:26:12;8.43;;;3.38;;
28078;SDS011;15388;42.238;24.684;2023-07-29T05:28:37;6.28;;;3.63;;
28078;SDS011;15388;42.238;24.684;2023-07-29T05:31:03;6.03;;;3.08;;
28078;SDS011;15388;42.238;24.684;2023-07-29T05:33:28;12.50;;;3.78;;
28078;SDS011;15388;42.238;24.684;2023-07-29T05:35:54;10.25;;;3.80;;
28078;SDS011;15388;42.238;24.684;2023-07-29T05:38:19;13.43;;;4.38;;
28078;SDS011;15388;42.238;24.684;2023-07-29T05:40:45;5.90;;;3.70;;
28078;SDS011;15388;42.238;24.684;2023-07-29T05:43:10;10.68;;;3.92;;
28078;SDS011;15388;42.238;24.684;2023-07-29T05:45:35;9.45;;;4.13;;
28078;SDS011;15388;42.238;24.684;2023-07-29T05:48:01;4.68;;;3.63;;
28078;SDS011;15388;42.238;24.684;2023-07-29T05:50:26;4.45;;;3.75;;
28078;SDS011;15388;42.238;24.684;2023-07-29T05:52:51;7.57;;;4.10;;
28078;SDS011;15388;42.238;24.684;2023-07-29T05:55:17;10.45;;;3.90;;
28078;SDS011;15388;42.238;24.684;2023-07-29T05:57:42;7.65;;;4.28;;
28078;SDS011;15388;42.238;24.684;2023-07-29T06:00:08;9.48;;;4.78;;
28078;SDS011;15388;42.238;24.684;2023-07-29T06:02:33;8.45;;;3.90;;
28078;SDS011;15388;42.238;24.684;2023-07-29T06:04:58;6.95;;;3.58;;
28078;SDS011;15388;42.238;24.684;2023-07-29T06:07:24;9.88;;;4.07;;
28078;SDS011;15388;42.238;24.684;2023-07-29T06:09:53;4.72;;;3.90;;
28078;SDS011;15388;42.238;24.684;2023-07-29T06:12:20;5.47;;;4.18;;
28078;SDS011;15388;42.238;24.684;2023-07-29T06:14:45;9.57;;;4.28;;
28078;SDS011;15388;42.238;24.684;2023-07-29T06:17:10;8.50;;;3.85;;
28078;SDS011;15388;42.238;24.684;2023-07-29T06:19:36;10.05;;;4.47;;
28078;SDS011;15388;42.238;24.684;2023-07-29T06:22:01;9.65;;;3.35;;
28078;SDS011;15388;42.238;24.684;2023-07-29T06:24:27;6.68;;;3.97;;
28078;SDS011;15388;42.238;24.684;2023-07-29T06:26:52;14.02;;;4.00;;
28078;SDS011;15388;42.238;24.684;2023-07-29T06:29:18;7.68;;;4.30;;
28078;SDS011;15388;42.238;24.684;2023-07-29T06:31:43;9.02;;;4.00;;
28078;SDS011;15388;42.238;24.684;2023-07-29T06:34:08;6.85;;;3.45;;
28078;SDS011;15388;42.238;24.684;2023-07-29T06:36:34;14.40;;;3.75;;
28078;SDS011;15388;42.238;24.684;2023-07-29T06:38:59;6.32;;;3.30;;
28078;SDS011;15388;42.238;24.684;2023-07-29T06:41:24;12.02;;;3.70;;
28078;SDS011;15388;42.238;24.684;2023-07-29T06:43:50;3.70;;;3.35;;
28078;SDS011;15388;42.238;24.684;2023-07-29T06:46:15;4.82;;;3.75;;
28078;SDS011;15388;42.238;24.684;2023-07-29T06:48:40;4.28;;;3.10;;
28078;SDS011;15388;42.238;24.684;2023-07-29T06:51:05;19.33;;;4.60;;
28078;SDS011;15388;42.238;24.684;2023-07-29T06:53:31;5.25;;;3.40;;
28078;SDS011;15388;42.238;24.684;2023-07-29T06:55:56;6.88;;;3.08;;
28078;SDS011;15388;42.238;24.684;2023-07-29T06:58:21;5.25;;;3.72;;
28078;SDS011;15388;42.238;24.684;2023-07-29T07:00:47;4.07;;;3.30;;
28078;SDS011;15388;42.238;24.684;2023-07-29T07:03:12;9.18;;;4.15;;
28078;SDS011;15388;42.238;24.684;2023-07-29T07:05:37;4.68;;;3.55;;
28078;SDS011;15388;42.238;24.684;2023-07-29T07:08:03;14.82;;;4.30;;
28078;SDS011;15388;42.238;24.684;2023-07-29T07:10:28;9.70;;;3.70;;
28078;SDS011;15388;42.238;24.684;2023-07-29T07:12:54;6.85;;;3.20;;
28078;SDS011;15388;42.238;24.684;2023-07-29T07:15:19;3.72;;;3.33;;
28078;SDS011;15388;42.238;24.684;2023-07-29T07:17:44;5.28;;;3.65;;
28078;SDS011;15388;42.238;24.684;2023-07-29T07:20:10;5.07;;;3.30;;
28078;SDS011;15388;42.238;24.684;2023-07-29T07:22:35;16.23;;;4.57;;
28078;SDS011;15388;42.238;24.684;2023-07-29T07:25:00;10.50;;;3.78;;
28078;SDS011;15388;42.238;24.684;2023-07-29T07:27:26;5.05;;;3.28;;
28078;SDS011;15388;42.238;24.684;2023-07-29T07:29:51;6.40;;;3.50;;
28078;SDS011;15388;42.238;24.684;2023-07-29T07:32:16;3.65;;;3.35;;
28078;SDS011;15388;42.238;24.684;2023-07-29T07:34:42;7.57;;;3.90;;
28078;SDS011;15388;42.238;24.684;2023-07-29T07:37:07;5.32;;;3.53;;
28078;SDS011;15388;42.238;24.684;2023-07-29T07:39:32;3.70;;;3.25;;
28078;SDS011;15388;42.238;24.684;2023-07-29T07:41:58;4.88;;;3.35;;
28078;SDS011;15388;42.238;24.684;2023-07-29T07:44:23;8.25;;;3.60;;
28078;SDS011;15388;42.238;24.684;2023-07-29T07:46:51;8.77;;;3.70;;
28078;SDS011;15388;42.238;24.684;2023-07-29T07:49:16;4.30;;;3.22;;
28078;SDS011;15388;42.238;24.684;2023-07-29T07:51:43;5.07;;;3.45;;
28078;SDS011;15388;42.238;24.684;2023-07-29T07:54:08;5.65;;;3.40;;
28078;SDS011;15388;42.238;24.684;2023-07-29T07:56:33;5.60;;;3.65;;
28078;SDS011;15388;42.238;24.684;2023-07-29T07:58:59;15.43;;;4.47;;
28078;SDS011;15388;42.238;24.684;2023-07-29T08:01:24;4.95;;;3.72;;
28078;SDS011;15388;42.238;24.684;2023-07-29T08:03:49;6.70;;;4.28;;
28078;SDS011;15388;42.238;24.684;2023-07-29T08:06:15;3.85;;;3.42;;
28078;SDS011;15388;42.238;24.684;2023-07-29T08:08:40;6.57;;;4.13;;
28078;SDS011;15388;42.238;24.684;2023-07-29T08:11:05;5.07;;;3.78;;
28078;SDS011;15388;42.238;24.684;2023-07-29T08:15:58;5.30;;;3.20;;
28078;SDS011;15388;42.238;24.684;2023-07-29T08:18:23;5.47;;;3.50;;
28078;SDS011;15388;42.238;24.684;2023-07-29T08:20:55;7.18;;;3.13;;
28078;SDS011;15388;42.238;24.684;2023-07-29T08:23:20;7.05;;;3.45;;
28078;SDS011;15388;42.238;24.684;2023-07-29T08:25:50;5.38;;;3.60;;
28078;SDS011;15388;42.238;24.684;2023-07-29T08:28:16;5.47;;;3.63;;
28078;SDS011;15388;42.238;24.684;2023-07-29T08:30:41;5.43;;;3.63;;
28078;SDS011;15388;42.238;24.684;2023-07-29T08:33:06;5.18;;;3.30;;
28078;SDS011;15388;42.238;24.684;2023-07-29T08:35:32;5.65;;;3.13;;
28078;SDS011;15388;42.238;24.684;2023-07-29T08:37:58;7.45;;;3.53;;
28078;SDS011;15388;42.238;24.684;2023-07-29T08:40:25;8.27;;;3.53;;
28078;SDS011;15388;42.238;24.684;2023-07-29T08:42:52;9.07;;;3.28;;
28078;SDS011;15388;42.238;24.684;2023-07-29T08:45:18;10.50;;;3.50;;
28078;SDS011;15388;42.238;24.684;2023-07-29T08:47:44;3.40;;;3.10;;
28078;SDS011;15388;42.238;24.684;2023-07-29T08:50:09;7.82;;;3.45;;
28078;SDS011;15388;42.238;24.684;2023-07-29T08:52:35;6.85;;;3.80;;
28078;SDS011;15388;42.238;24.684;2023-07-29T08:55:01;5.07;;;2.70;;
28078;SDS011;15388;42.238;24.684;2023-07-29T08:57:26;7.10;;;3.17;;
28078;SDS011;15388;42.238;24.684;2023-07-29T08:59:52;4.00;;;3.33;;
28078;SDS011;15388;42.238;24.684;2023-07-29T09:02:17;7.57;;;4.00;;
28078;SDS011;15388;42.238;24.684;2023-07-29T09:04:43;7.80;;;3.72;;
28078;SDS011;15388;42.238;24.684;2023-07-29T09:07:08;3.63;;;3.10;;
28078;SDS011;15388;42.238;24.684;2023-07-29T09:09:34;4.85;;;3.47;;
28078;SDS011;15388;42.238;24.684;2023-07-29T09:12:00;14.53;;;4.13;;
28078;SDS011;15388;42.238;24.684;2023-07-29T09:14:25;6.80;;;3.53;;
28078;SDS011;15388;42.238;24.684;2023-07-29T09:16:51;8.52;;;3.63;;
28078;SDS011;15388;42.238;24.684;2023-07-29T09:19:17;7.03;;;3.27;;
28078;SDS011;15388;42.238;24.684;2023-07-29T09:21:42;7.30;;;3.97;;
28078;SDS011;15388;42.238;24.684;2023-07-29T09:24:07;3.73;;;2.90;;
28078;SDS011;15388;42.238;24.684;2023-07-29T09:26:33;4.47;;;3.42;;
28078;SDS011;15388;42.238;24.684;2023-07-29T09:28:59;4.27;;;3.20;;
28078;SDS011;15388;42.238;24.684;2023-07-29T09:31:25;5.27;;;3.43;;
28078;SDS011;15388;42.238;24.684;2023-07-29T09:34:00;5.33;;;3.83;;
28078;SDS011;15388;42.238;24.684;2023-07-29T09:36:26;5.30;;;3.13;;
28078;SDS011;15388;42.238;24.684;2023-07-29T09:38:55;12.50;;;6.50;;
28078;SDS011;15388;42.238;24.684;2023-07-29T09:41:24;5.95;;;4.35;;
28078;SDS011;15388;42.238;24.684;2023-07-29T09:44:00;3.75;;;3.40;;
28078;SDS011;15388;42.238;24.684;2023-07-29T09:46:31;19.77;;;11.02;;
28078;SDS011;15388;42.238;24.684;2023-07-29T09:48:57;4.22;;;3.38;;
28078;SDS011;15388;42.238;24.684;2023-07-29T09:51:22;12.27;;;7.97;;
28078;SDS011;15388;42.238;24.684;2023-07-29T09:53:48;14.23;;;6.23;;
28078;SDS011;15388;42.238;24.684;2023-07-29T09:58:40;27.30;;;12.13;;
28078;SDS011;15388;42.238;24.684;2023-07-29T10:01:07;9.27;;;4.03;;
28078;SDS011;15388;42.238;24.684;2023-07-29T10:03:33;3.13;;;2.83;;
28078;SDS011;15388;42.238;24.684;2023-07-29T10:06:00;3.03;;;2.77;;
28078;SDS011;15388;42.238;24.684;2023-07-29T10:08:25;3.53;;;2.83;;
28078;SDS011;15388;42.238;24.684;2023-07-29T10:10:51;3.07;;;2.80;;
28078;SDS011;15388;42.238;24.684;2023-07-29T10:13:17;4.77;;;2.67;;
28078;SDS011;15388;42.238;24.684;2023-07-29T10:15:42;4.13;;;3.00;;
28078;SDS011;15388;42.238;24.684;2023-07-29T10:18:09;9.80;;;3.45;;
28078;SDS011;15388;42.238;24.684;2023-07-29T10:20:34;3.93;;;2.90;;
28078;SDS011;15388;42.238;24.684;2023-07-29T10:23:00;11.03;;;3.67;;
28078;SDS011;15388;42.238;24.684;2023-07-29T10:25:33;8.02;;;3.15;;
28078;SDS011;15388;42.238;24.684;2023-07-29T10:28:04;6.88;;;2.95;;
28078;SDS011;15388;42.238;24.684;2023-07-29T10:30:30;2.70;;;2.50;;
28078;SDS011;15388;42.238;24.684;2023-07-29T10:32:57;3.03;;;2.73;;
28078;SDS011;15388;42.238;24.684;2023-07-29T10:35:23;4.13;;;3.67;;
28078;SDS011;15388;42.238;24.684;2023-07-29T10:37:50;3.70;;;3.13;;
28078;SDS011;15388;42.238;24.684;2023-07-29T10:40:17;3.35;;;2.55;;
28078;SDS011;15388;42.238;24.684;2023-07-29T10:43:02;2.83;;;2.60;;
28078;SDS011;15388;42.238;24.684;2023-07-29T10:45:36;4.45;;;2.75;;
28078;SDS011;15388;42.238;24.684;2023-07-29T10:48:04;3.42;;;2.40;;
28078;SDS011;15388;42.238;24.684;2023-07-29T10:50:31;3.80;;;2.85;;
28078;SDS011;15388;42.238;24.684;2023-07-29T10:52:56;2.67;;;2.47;;
28078;SDS011;15388;42.238;24.684;2023-07-29T10:55:28;2.60;;;2.40;;
28078;SDS011;15388;42.238;24.684;2023-07-29T10:58:13;7.55;;;2.83;;
28078;SDS011;15388;42.238;24.684;2023-07-29T11:00:43;3.17;;;2.50;;
28078;SDS011;15388;42.238;24.684;2023-07-29T11:03:09;5.38;;;3.22;;
28078;SDS011;15388;42.238;24.684;2023-07-29T11:08:28;6.28;;;2.80;;
28078;SDS011;15388;42.238;24.684;2023-07-29T11:10:57;2.80;;;2.53;;
28078;SDS011;15388;42.238;24.684;2023-07-29T11:13:22;3.35;;;2.67;;
28078;SDS011;15388;42.238;24.684;2023-07-29T11:15:48;2.93;;;2.70;;
28078;SDS011;15388;42.238;24.684;2023-07-29T11:18:14;3.05;;;2.75;;
28078;SDS011;15388;42.238;24.684;2023-07-29T11:20:40;2.83;;;2.55;;
28078;SDS011;15388;42.238;24.684;2023-07-29T11:23:05;3.37;;;2.50;;
28078;SDS011;15388;42.238;24.684;2023-07-29T11:25:31;3.10;;;2.67;;
28078;SDS011;15388;42.238;24.684;2023-07-29T11:27:59;5.93;;;2.63;;
28078;SDS011;15388;42.238;24.684;2023-07-29T11:30:26;4.18;;;1.98;;
28078;SDS011;15388;42.238;24.684;2023-07-29T11:32:52;9.35;;;2.97;;
28078;SDS011;15388;42.238;24.684;2023-07-29T11:35:18;3.60;;;2.33;;
28078;SDS011;15388;42.238;24.684;2023-07-29T11:37:44;4.67;;;2.20;;
28078;SDS011;15388;42.238;24.684;2023-07-29T11:40:13;1.88;;;1.70;;
28078;SDS011;15388;42.238;24.684;2023-07-29T11:42:38;6.55;;;2.03;;
28078;SDS011;15388;42.238;24.684;2023-07-29T11:45:04;1.92;;;1.83;;
28078;SDS011;15388;42.238;24.684;2023-07-29T11:47:31;2.63;;;1.83;;
28078;SDS011;15388;42.238;24.684;2023-07-29T11:50:01;1.90;;;1.80;;
28078;SDS011;15388;42.238;24.684;2023-07-29T11:52:27;4.07;;;1.95;;
28078;SDS011;15388;42.238;24.684;2023-07-29T11:54:53;6.85;;;2.85;;
28078;SDS011;15388;42.238;24.684;2023-07-29T11:57:18;2.77;;;1.97;;
28078;SDS011;15388;42.238;24.684;2023-07-29T11:59:44;2.92;;;1.60;;
28078;SDS011;15388;42.238;24.684;2023-07-29T12:02:15;2.78;;;1.65;;
28078;SDS011;15388;42.238;24.684;2023-07-29T12:04:41;4.28;;;1.80;;
28078;SDS011;15388;42.238;24.684;2023-07-29T12:07:06;2.60;;;1.77;;
28078;SDS011;15388;42.238;24.684;2023-07-29T12:09:32;1.80;;;1.60;;
28078;SDS011;15388;42.238;24.684;2023-07-29T12:11:58;2.28;;;2.08;;
28078;SDS011;15388;42.238;24.684;2023-07-29T12:14:30;4.03;;;2.67;;
28078;SDS011;15388;42.238;24.684;2023-07-29T12:16:55;2.78;;;1.73;;
28078;SDS011;15388;42.238;24.684;2023-07-29T12:19:20;3.93;;;1.63;;
28078;SDS011;15388;42.238;24.684;2023-07-29T12:21:47;1.92;;;1.70;;
28078;SDS011;15388;42.238;24.684;2023-07-29T12:24:13;4.95;;;1.65;;
28078;SDS011;15388;42.238;24.684;2023-07-29T12:26:42;2.17;;;1.63;;
28078;SDS011;15388;42.238;24.684;2023-07-29T12:29:17;2.00;;;1.73;;
28078;SDS011;15388;42.238;24.684;2023-07-29T12:31:47;1.95;;;1.65;;
28078;SDS011;15388;42.238;24.684;2023-07-29T12:34:19;12.55;;;2.15;;
28078;SDS011;15388;42.238;24.684;2023-07-29T12:36:49;4.93;;;2.28;;
28078;SDS011;15388;42.238;24.684;2023-07-29T12:39:33;4.10;;;1.50;;
28078;SDS011;15388;42.238;24.684;2023-07-29T12:42:00;1.20;;;1.10;;
28078;SDS011;15388;42.238;24.684;2023-07-29T12:44:26;3.70;;;1.57;;
28078;SDS011;15388;42.238;24.684;2023-07-29T12:46:52;1.75;;;1.27;;
28078;SDS011;15388;42.238;24.684;2023-07-29T12:49:18;1.85;;;1.75;;
28078;SDS011;15388;42.238;24.684;2023-07-29T12:51:44;14.63;;;2.57;;
28078;SDS011;15388;42.238;24.684;2023-07-29T12:54:09;1.67;;;1.57;;
28078;SDS011;15388;42.238;24.684;2023-07-29T12:56:34;3.50;;;1.60;;
28078;SDS011;15388;42.238;24.684;2023-07-29T12:59:00;1.70;;;1.50;;
28078;SDS011;15388;42.238;24.684;2023-07-29T13:01:26;2.30;;;1.40;;
28078;SDS011;15388;42.238;24.684;2023-07-29T13:03:51;2.85;;;1.75;;
28078;SDS011;15388;42.238;24.684;2023-07-29T13:06:17;3.97;;;1.53;;
28078;SDS011;15388;42.238;24.684;2023-07-29T13:08:42;1.73;;;1.50;;
28078;SDS011;15388;42.238;24.684;2023-07-29T13:11:08;1.50;;;1.40;;
28078;SDS011;15388;42.238;24.684;2023-07-29T13:13:33;2.00;;;1.30;;
28078;SDS011;15388;42.238;24.684;2023-07-29T13:15:59;4.00;;;1.73;;
28078;SDS011;15388;42.238;24.684;2023-07-29T13:18:24;2.07;;;1.87;;
28078;SDS011;15388;42.238;24.684;2023-07-29T13:20:49;2.03;;;1.70;;
28078;SDS011;15388;42.238;24.684;2023-07-29T13:23:15;1.57;;;1.47;;
28078;SDS011;15388;42.238;24.684;2023-07-29T13:25:40;1.60;;;1.50;;
28078;SDS011;15388;42.238;24.684;2023-07-29T13:28:06;1.70;;;1.40;;
28078;SDS011;15388;42.238;24.684;2023-07-29T13:30:32;3.35;;;1.63;;
28078;SDS011;15388;42.238;24.684;2023-07-29T13:32:58;1.50;;;1.40;;
28078;SDS011;15388;42.238;24.684;2023-07-29T13:35:23;1.63;;;1.53;;
28078;SDS011;15388;42.238;24.684;2023-07-29T13:37:49;1.57;;;1.43;;
28078;SDS011;15388;42.238;24.684;2023-07-29T13:40:14;2.17;;;1.87;;
28078;SDS011;15388;42.238;24.684;2023-07-29T13:42:39;1.87;;;1.60;;
28078;SDS011;15388;42.238;24.684;2023-07-29T13:45:05;2.47;;;1.90;;
28078;SDS011;15388;42.238;24.684;2023-07-29T13:47:30;2.23;;;2.03;;
28078;SDS011;15388;42.238;24.684;2023-07-29T13:49:56;10.33;;;2.27;;
28078;SDS011;15388;42.238;24.684;2023-07-29T13:52:21;2.20;;;1.63;;
28078;SDS011;15388;42.238;24.684;2023-07-29T13:54:46;2.03;;;1.57;;
28078;SDS011;15388;42.238;24.684;2023-07-29T13:57:12;2.20;;;1.87;;
28078;SDS011;15388;42.238;24.684;2023-07-29T13:59:37;1.80;;;1.63;;
28078;SDS011;15388;42.238;24.684;2023-07-29T14:02:05;4.57;;;1.70;;
28078;SDS011;15388;42.238;24.684;2023-07-29T14:04:32;3.78;;;1.75;;
28078;SDS011;15388;42.238;24.684;2023-07-29T14:09:22;3.23;;;1.63;;
28078;SDS011;15388;42.238;24.684;2023-07-29T14:11:47;1.40;;;1.30;;
28078;SDS011;15388;42.238;24.684;2023-07-29T14:14:13;2.03;;;1.17;;
28078;SDS011;15388;42.238;24.684;2023-07-29T14:16:38;1.40;;;1.30;;
28078;SDS011;15388;42.238;24.684;2023-07-29T14:19:04;4.45;;;1.50;;
28078;SDS011;15388;42.238;24.684;2023-07-29T14:21:29;3.13;;;1.77;;
28078;SDS011;15388;42.238;24.684;2023-07-29T14:23:54;2.47;;;1.50;;
28078;SDS011;15388;42.238;24.684;2023-07-29T14:26:20;4.13;;;2.03;;
28078;SDS011;15388;42.238;24.684;2023-07-29T14:28:45;3.57;;;2.03;;
28078;SDS011;15388;42.238;24.684;2023-07-29T14:31:11;4.83;;;1.60;;
28078;SDS011;15388;42.238;24.684;2023-07-29T14:33:36;3.90;;;1.53;;
28078;SDS011;15388;42.238;24.684;2023-07-29T14:36:01;3.70;;;1.70;;
28078;SDS011;15388;42.238;24.684;2023-07-29T14:38:28;3.22;;;1.75;;